createdAt,value
2017-07-14T00:01:57.941Z,13.60
2017-07-14T00:04:26.025Z,13.20
2017-07-14T00:06:54.133Z,12.90
2017-07-14T00:09:22.197Z,13.10
2017-07-14T00:11:50.284Z,12.60
2017-07-14T00:14:18.368Z,12.40
2017-07-14T00:16:46.459Z,12.60
2017-07-14T00:19:14.534Z,12.60
2017-07-14T00:21:42.620Z,12.90
2017-07-14T00:24:10.700Z,12.90
2017-07-14T00:26:38.776Z,12.60
2017-07-14T00:29:07.082Z,12.50
2017-07-14T00:31:35.163Z,12.90
2017-07-14T00:34:03.244Z,13.20
2017-07-14T00:36:31.320Z,13.20
2017-07-14T00:38:59.403Z,13.30
2017-07-14T00:41:27.490Z,12.70
2017-07-14T00:43:55.589Z,12.30
2017-07-14T00:46:23.668Z,12.40
2017-07-14T00:48:51.755Z,12.80
2017-07-14T00:51:19.849Z,13.00
2017-07-14T00:53:47.952Z,13.10
2017-07-14T00:56:16.033Z,13.40
2017-07-14T00:58:44.114Z,13.60
2017-07-14T01:01:12.199Z,13.60
2017-07-14T01:03:40.280Z,13.60
2017-07-14T01:06:08.371Z,13.70
2017-07-14T01:08:36.451Z,13.70
2017-07-14T01:11:04.531Z,13.50
2017-07-14T01:13:32.626Z,13.40
2017-07-14T01:16:00.712Z,13.40
2017-07-14T01:18:28.780Z,13.20
2017-07-14T01:20:56.872Z,12.80
2017-07-14T01:23:24.953Z,12.40
2017-07-14T01:25:53.050Z,12.50
2017-07-14T01:28:21.129Z,12.70
2017-07-14T01:30:49.212Z,13.00
2017-07-14T01:33:17.297Z,13.00
2017-07-14T01:35:45.368Z,12.80
2017-07-14T01:38:13.468Z,13.00
2017-07-14T01:40:41.548Z,13.10
2017-07-14T01:43:09.638Z,12.80
2017-07-14T01:45:37.729Z,12.50
2017-07-14T01:48:05.849Z,12.40
2017-07-14T01:50:33.930Z,12.70
2017-07-14T01:53:02.022Z,12.90
2017-07-14T01:55:30.107Z,13.00
2017-07-14T01:57:58.193Z,12.80
2017-07-14T02:00:26.278Z,12.40
2017-07-14T02:02:54.358Z,12.30
2017-07-14T02:05:22.444Z,12.10
2017-07-14T02:07:50.514Z,11.80
2017-07-14T02:10:18.612Z,11.80
2017-07-14T02:12:46.698Z,12.00
2017-07-14T02:15:14.796Z,12.20
2017-07-14T02:17:42.889Z,12.30
2017-07-14T02:20:10.971Z,12.40
2017-07-14T02:22:39.056Z,12.60
2017-07-14T02:25:07.147Z,12.60
2017-07-14T02:27:35.235Z,12.80
2017-07-14T02:30:03.318Z,13.10
2017-07-14T02:32:31.623Z,12.90
2017-07-14T02:34:59.710Z,12.50
2017-07-14T02:37:27.800Z,12.70
2017-07-14T02:39:55.892Z,12.90
2017-07-14T02:42:23.983Z,12.80
2017-07-14T02:44:52.072Z,12.70
2017-07-14T02:47:20.174Z,12.70
2017-07-14T02:49:48.265Z,12.90
2017-07-14T02:52:16.362Z,13.20
2017-07-14T02:54:44.434Z,13.40
2017-07-14T02:57:12.524Z,13.10
2017-07-14T02:59:40.620Z,13.20
2017-07-14T03:02:08.692Z,12.90
2017-07-14T03:04:36.776Z,12.60
2017-07-14T03:07:04.853Z,12.60
2017-07-14T03:09:32.938Z,12.40
2017-07-14T03:12:01.034Z,12.40
2017-07-14T03:14:29.114Z,12.40
2017-07-14T03:16:57.206Z,12.20
2017-07-14T03:19:25.280Z,12.30
2017-07-14T03:21:53.361Z,12.50
2017-07-14T03:24:21.446Z,12.60
2017-07-14T03:26:49.532Z,12.50
2017-07-14T03:29:17.612Z,12.30
2017-07-14T03:31:45.707Z,12.30
2017-07-14T03:34:13.779Z,12.50
2017-07-14T03:36:41.873Z,12.80
2017-07-14T03:39:09.960Z,13.10
2017-07-14T03:41:38.051Z,13.30
2017-07-14T03:44:06.140Z,13.50
2017-07-14T03:46:34.225Z,13.50
2017-07-14T03:49:02.312Z,13.60
2017-07-14T03:51:30.402Z,13.60
2017-07-14T03:53:58.479Z,13.70
2017-07-14T03:56:26.583Z,13.70
2017-07-14T03:58:54.687Z,13.80
2017-07-14T04:01:22.767Z,13.80
2017-07-14T04:03:50.904Z,13.80
2017-07-14T04:06:18.998Z,13.70
2017-07-14T04:08:47.090Z,13.80
2017-07-14T04:11:15.176Z,13.80
2017-07-14T04:13:43.267Z,13.80
2017-07-14T04:16:11.348Z,13.90
2017-07-14T04:18:39.441Z,13.90
2017-07-14T04:21:07.512Z,13.90
2017-07-14T04:23:35.613Z,14.00
2017-07-14T04:26:03.700Z,14.00
2017-07-14T04:28:31.800Z,14.00
2017-07-14T04:30:59.881Z,14.10
2017-07-14T04:33:27.957Z,14.10
2017-07-14T04:35:56.057Z,14.00
2017-07-14T04:38:24.143Z,14.00
2017-07-14T04:40:52.230Z,13.50
2017-07-14T04:43:20.308Z,13.00
2017-07-14T04:45:48.384Z,13.30
2017-07-14T04:48:16.473Z,13.30
2017-07-14T04:50:44.559Z,13.30
2017-07-14T04:53:12.650Z,13.40
2017-07-14T04:55:40.951Z,13.60
2017-07-14T04:58:09.036Z,13.30
2017-07-14T05:00:37.161Z,13.30
2017-07-14T05:03:05.241Z,13.10
2017-07-14T05:05:33.316Z,13.30
2017-07-14T05:08:01.402Z,13.10
2017-07-14T05:10:29.472Z,13.30
2017-07-14T05:12:57.551Z,13.30
2017-07-14T05:15:25.637Z,12.80
2017-07-14T05:17:53.735Z,12.60
2017-07-14T05:20:21.817Z,12.80
2017-07-14T05:22:49.902Z,13.10
2017-07-14T05:25:18.026Z,13.50
2017-07-14T05:27:46.132Z,13.60
2017-07-14T05:30:14.229Z,13.80
2017-07-14T05:32:42.308Z,13.80
2017-07-14T05:35:10.402Z,13.90
2017-07-14T05:37:38.479Z,14.50
2017-07-14T05:40:06.709Z,14.90
2017-07-14T05:42:34.785Z,15.20
2017-07-14T05:45:02.863Z,15.50
2017-07-14T05:47:30.948Z,15.80
2017-07-14T05:49:59.032Z,16.40
2017-07-14T05:52:27.127Z,16.90
2017-07-14T05:54:55.220Z,16.60
2017-07-14T05:57:23.303Z,16.90
2017-07-14T05:59:51.400Z,16.50
2017-07-14T06:02:19.484Z,17.10
2017-07-14T06:04:47.576Z,17.80
2017-07-14T06:07:15.671Z,18.00
2017-07-14T06:09:43.751Z,18.00
2017-07-14T06:12:11.843Z,18.00
2017-07-14T06:14:39.924Z,18.50
2017-07-14T06:17:08.011Z,18.30
2017-07-14T06:19:36.083Z,18.00
2017-07-14T06:22:04.179Z,17.70
2017-07-14T06:24:32.259Z,18.60
2017-07-14T06:27:00.336Z,18.20
2017-07-14T06:29:28.420Z,18.00
2017-07-14T06:31:56.507Z,18.80
2017-07-14T06:34:24.588Z,19.20
2017-07-14T06:36:52.668Z,19.70
2017-07-14T06:39:20.764Z,20.00
2017-07-14T06:41:48.843Z,20.10
2017-07-14T06:44:16.920Z,20.40
2017-07-14T06:46:45.008Z,20.30
2017-07-14T06:49:13.085Z,18.60
2017-07-14T06:51:41.161Z,19.30
2017-07-14T06:54:09.251Z,20.20
2017-07-14T06:56:37.349Z,20.90
2017-07-14T06:59:05.438Z,21.00
2017-07-14T07:01:33.507Z,21.00
2017-07-14T07:04:01.591Z,21.20
2017-07-14T07:06:29.684Z,21.20
2017-07-14T07:08:57.765Z,21.50
2017-07-14T07:11:25.846Z,20.40
2017-07-14T07:13:53.924Z,19.30
2017-07-14T07:16:22.003Z,19.00
2017-07-14T07:18:50.093Z,19.60
2017-07-14T07:21:18.168Z,20.70
2017-07-14T07:23:46.255Z,21.70
2017-07-14T07:26:14.336Z,21.30
2017-07-14T07:28:42.420Z,20.80
2017-07-14T07:31:10.503Z,21.20
2017-07-14T07:33:38.589Z,21.70
2017-07-14T07:36:06.662Z,21.50
2017-07-14T07:38:34.751Z,21.70
2017-07-14T07:41:02.829Z,21.30
2017-07-14T07:43:30.917Z,22.20
2017-07-14T07:45:59.800Z,22.30
2017-07-14T07:48:33.560Z,22.50
2017-07-14T07:51:01.640Z,22.50
2017-07-14T07:53:29.732Z,20.60
2017-07-14T07:55:57.836Z,21.30
2017-07-14T07:58:25.923Z,21.50
2017-07-14T08:00:54.003Z,22.70
2017-07-14T08:03:22.091Z,23.30
2017-07-14T08:05:50.157Z,23.30
2017-07-14T08:08:18.233Z,23.40
2017-07-14T08:10:46.315Z,23.30
2017-07-14T08:13:14.423Z,23.00
2017-07-14T08:15:42.505Z,22.20
2017-07-14T08:18:10.594Z,21.90
2017-07-14T08:20:38.696Z,21.60
2017-07-14T08:23:06.796Z,22.80
2017-07-14T08:25:34.877Z,23.00
2017-07-14T08:28:02.969Z,23.30
2017-07-14T08:30:31.041Z,22.60
2017-07-14T08:32:59.124Z,23.50
2017-07-14T08:35:27.209Z,22.70
2017-07-14T08:37:55.290Z,22.70
2017-07-14T08:40:23.372Z,23.70
2017-07-14T08:42:51.461Z,24.70
2017-07-14T08:45:19.544Z,23.70
2017-07-14T08:47:47.840Z,24.40
2017-07-14T08:50:15.918Z,25.20
2017-07-14T08:52:44.001Z,24.80
2017-07-14T08:55:12.198Z,23.70
2017-07-14T08:57:40.280Z,24.80
2017-07-14T09:00:08.579Z,25.20
2017-07-14T09:02:36.655Z,24.80
2017-07-14T09:05:04.747Z,24.30
2017-07-14T09:07:32.832Z,22.90
2017-07-14T09:10:00.917Z,22.80
2017-07-14T09:12:28.997Z,22.30
2017-07-14T09:14:57.078Z,23.00
2017-07-14T09:17:25.157Z,23.70
2017-07-14T09:19:53.240Z,24.70
2017-07-14T09:22:21.319Z,25.50
2017-07-14T09:24:49.405Z,25.80
2017-07-14T09:27:17.492Z,26.20
2017-07-14T09:29:45.572Z,26.00
2017-07-14T09:32:13.665Z,26.00
2017-07-14T09:34:41.746Z,25.40
2017-07-14T09:37:10.234Z,23.40
2017-07-14T09:39:38.316Z,24.50
2017-07-14T09:42:06.409Z,25.20
2017-07-14T09:44:34.484Z,24.90
2017-07-14T09:47:02.577Z,24.40
2017-07-14T09:49:30.667Z,24.30
2017-07-14T09:51:58.787Z,23.60
2017-07-14T09:54:26.878Z,24.60
2017-07-14T09:56:54.960Z,25.30
2017-07-14T09:59:23.047Z,25.80
2017-07-14T10:01:51.128Z,25.20
2017-07-14T10:04:19.209Z,25.80
2017-07-14T10:06:47.295Z,26.00
2017-07-14T10:09:15.381Z,24.80
2017-07-14T10:11:43.454Z,25.20
2017-07-14T10:14:11.555Z,25.20
2017-07-14T10:16:39.636Z,25.30
2017-07-14T10:19:07.716Z,25.90
2017-07-14T10:21:35.804Z,26.10
2017-07-14T10:24:03.893Z,26.90
2017-07-14T10:26:31.997Z,27.50
2017-07-14T10:29:00.076Z,26.50
2017-07-14T10:31:28.165Z,25.80
2017-07-14T10:33:56.248Z,26.80
2017-07-14T10:36:24.332Z,26.70
2017-07-14T10:38:52.408Z,26.20
2017-07-14T10:41:20.497Z,26.30
2017-07-14T10:43:48.574Z,25.30
2017-07-14T10:46:16.659Z,25.20
2017-07-14T10:48:44.740Z,25.50
2017-07-14T10:51:12.840Z,24.90
2017-07-14T10:53:40.924Z,24.50
2017-07-14T10:56:09.020Z,25.10
2017-07-14T10:58:37.105Z,25.40
2017-07-14T11:01:05.182Z,25.60
2017-07-14T11:03:33.271Z,25.50
2017-07-14T11:06:01.342Z,24.90
2017-07-14T11:08:29.429Z,25.10
2017-07-14T11:10:57.504Z,25.10
2017-07-14T11:13:25.586Z,25.00
2017-07-14T11:15:53.661Z,25.20
2017-07-14T11:18:21.733Z,25.90
2017-07-14T11:20:49.827Z,26.10
2017-07-14T11:23:17.920Z,26.00
2017-07-14T11:25:45.998Z,24.60
2017-07-14T11:28:14.089Z,23.40
2017-07-14T11:30:42.169Z,22.60
2017-07-14T11:33:10.236Z,22.40
2017-07-14T11:35:38.330Z,22.20
2017-07-14T11:38:06.423Z,22.20
2017-07-14T11:40:34.505Z,22.30
2017-07-14T11:43:02.613Z,22.30
2017-07-14T11:45:30.673Z,22.10
2017-07-14T11:47:58.749Z,21.90
2017-07-14T11:50:26.855Z,22.10
2017-07-14T11:52:54.935Z,22.20
2017-07-14T11:55:23.025Z,22.20
2017-07-14T11:57:51.105Z,22.60
2017-07-14T12:00:19.201Z,22.70
2017-07-14T12:02:47.280Z,22.60
2017-07-14T12:05:15.357Z,21.80
2017-07-14T12:07:43.442Z,22.00
2017-07-14T12:10:11.868Z,21.50
2017-07-14T12:12:39.949Z,21.60
2017-07-14T12:15:08.030Z,21.70
2017-07-14T12:17:36.125Z,21.90
2017-07-14T12:20:04.208Z,22.40
2017-07-14T12:22:32.291Z,22.00
2017-07-14T12:25:00.371Z,21.80
2017-07-14T12:30:02.904Z,21.30
2017-07-14T12:32:31.008Z,21.40
2017-07-14T12:34:59.080Z,21.40
2017-07-14T12:37:27.172Z,21.70
2017-07-14T12:39:55.256Z,22.20
2017-07-14T12:42:23.332Z,22.40
2017-07-14T12:44:51.417Z,22.10
2017-07-14T12:47:19.500Z,21.80
2017-07-14T12:49:47.580Z,22.20
2017-07-14T12:52:15.656Z,22.10
2017-07-14T12:54:43.740Z,22.40
2017-07-14T12:57:11.829Z,22.30
2017-07-14T12:59:39.926Z,22.60
2017-07-14T13:02:07.997Z,22.30
2017-07-14T13:04:36.081Z,22.40
2017-07-14T13:07:04.173Z,22.30
2017-07-14T13:09:32.257Z,22.10
2017-07-14T13:12:00.348Z,21.90
2017-07-14T13:14:28.436Z,21.70
2017-07-14T13:16:56.515Z,21.60
2017-07-14T13:19:24.598Z,21.80
2017-07-14T13:21:52.688Z,21.90
2017-07-14T13:24:20.772Z,22.40
2017-07-14T13:26:48.868Z,22.70
2017-07-14T13:29:16.948Z,22.90
2017-07-14T13:31:45.041Z,22.80
2017-07-14T13:34:13.130Z,22.60
2017-07-14T13:36:41.200Z,22.50
2017-07-14T13:39:09.286Z,22.60
2017-07-14T13:41:37.364Z,22.40
2017-07-14T13:44:05.444Z,22.40
2017-07-14T13:46:33.541Z,22.50
2017-07-14T13:49:01.641Z,22.60
2017-07-14T13:51:29.722Z,22.70
2017-07-14T13:53:57.799Z,22.60
2017-07-14T13:56:25.890Z,22.50
2017-07-14T13:58:53.970Z,22.30
2017-07-14T14:01:22.044Z,22.20
2017-07-14T14:03:50.129Z,21.60
2017-07-14T14:06:18.227Z,21.70
2017-07-14T14:08:46.301Z,21.70
2017-07-14T14:11:14.397Z,21.80
2017-07-14T14:13:42.479Z,22.00
2017-07-14T14:16:10.554Z,22.10
2017-07-14T14:18:38.644Z,22.30
2017-07-14T14:21:06.717Z,22.40
2017-07-14T14:23:34.811Z,23.10
2017-07-14T14:26:02.901Z,23.00
2017-07-14T14:28:30.984Z,23.20
2017-07-14T14:30:59.061Z,22.60
2017-07-14T14:33:27.173Z,22.60
2017-07-14T14:35:55.255Z,22.80
2017-07-14T14:38:23.341Z,23.00
2017-07-14T14:40:51.424Z,22.60
2017-07-14T14:43:19.511Z,23.10
2017-07-14T14:45:47.601Z,23.40
2017-07-14T14:48:15.681Z,23.50
2017-07-14T14:50:43.762Z,22.90
2017-07-14T14:53:11.834Z,22.50
2017-07-14T14:55:39.908Z,22.90
2017-07-14T14:58:07.996Z,22.90
2017-07-14T15:00:36.076Z,22.80
2017-07-14T15:03:04.159Z,22.50
2017-07-14T15:05:32.245Z,22.20
2017-07-14T15:08:00.332Z,21.60
2017-07-14T15:10:28.412Z,21.80
2017-07-14T15:12:56.508Z,22.00
2017-07-14T15:15:24.592Z,21.90
2017-07-14T15:17:52.684Z,22.10
2017-07-14T15:20:20.756Z,22.00
2017-07-14T15:22:48.830Z,21.90
2017-07-14T15:25:16.915Z,21.80
2017-07-14T15:27:44.996Z,21.70
2017-07-14T15:30:13.088Z,21.30
2017-07-14T15:32:41.172Z,21.20
2017-07-14T15:35:09.257Z,20.60
2017-07-14T15:37:37.569Z,19.60
2017-07-14T15:40:05.648Z,18.40
2017-07-14T15:42:33.719Z,18.20
2017-07-14T15:45:01.799Z,18.00
2017-07-14T15:47:29.877Z,18.00
2017-07-14T15:49:57.962Z,17.60
2017-07-14T15:52:26.032Z,16.90
2017-07-14T15:54:54.118Z,17.30
2017-07-14T15:57:22.198Z,17.60
2017-07-14T15:59:50.273Z,17.30
2017-07-14T16:02:18.374Z,17.30
2017-07-14T16:04:46.450Z,17.20
2017-07-14T16:07:14.531Z,17.50
2017-07-14T16:09:42.611Z,17.50
2017-07-14T16:12:10.687Z,17.60
2017-07-14T16:14:38.759Z,17.60
2017-07-14T16:17:06.860Z,17.90
2017-07-14T16:19:34.943Z,18.10
2017-07-14T16:22:03.032Z,17.90
2017-07-14T16:24:31.115Z,17.90
2017-07-14T16:26:59.196Z,17.60
2017-07-14T16:29:27.280Z,17.80
2017-07-14T16:31:55.363Z,17.70
2017-07-14T16:34:23.442Z,17.70
2017-07-14T16:36:51.519Z,17.80
2017-07-14T16:39:19.597Z,17.70
2017-07-14T16:41:47.673Z,17.90
2017-07-14T16:44:15.755Z,18.00
2017-07-14T16:46:43.834Z,18.00
2017-07-14T16:49:11.916Z,18.20
2017-07-14T16:51:39.999Z,18.10
2017-07-14T16:54:08.077Z,18.10
2017-07-14T16:56:36.155Z,18.60
2017-07-14T16:59:04.242Z,18.70
2017-07-14T17:01:32.325Z,18.80
2017-07-14T17:04:00.399Z,18.70
2017-07-14T17:06:28.479Z,18.50
2017-07-14T17:08:56.570Z,18.30
2017-07-14T17:11:24.656Z,18.20
2017-07-14T17:13:52.750Z,18.10
2017-07-14T17:16:20.832Z,18.00
2017-07-14T17:18:48.908Z,17.80
2017-07-14T17:21:16.992Z,17.80
2017-07-14T17:23:45.072Z,17.80
2017-07-14T17:26:13.150Z,17.30
2017-07-14T17:28:41.233Z,17.50
2017-07-14T17:31:09.313Z,17.20
2017-07-14T17:33:37.398Z,17.20
2017-07-14T17:36:05.479Z,17.20
2017-07-14T17:38:33.590Z,16.90
2017-07-14T17:41:01.665Z,17.00
2017-07-14T17:43:29.748Z,17.00
2017-07-14T17:45:57.842Z,17.00
2017-07-14T17:48:25.923Z,17.00
2017-07-14T17:50:53.997Z,16.80
2017-07-14T17:53:22.088Z,16.70
2017-07-14T17:55:50.175Z,16.80
2017-07-14T17:58:18.249Z,16.90
2017-07-14T18:00:46.363Z,17.10
2017-07-14T18:03:14.412Z,16.90
2017-07-14T18:05:42.491Z,16.90
2017-07-14T18:08:10.572Z,16.80
2017-07-14T18:10:38.660Z,16.70
2017-07-14T18:13:06.740Z,16.70
2017-07-14T18:15:34.826Z,16.80
2017-07-14T18:18:02.900Z,16.70
2017-07-14T18:20:30.985Z,16.90
2017-07-14T18:22:59.056Z,16.80
2017-07-14T18:25:27.141Z,16.80
2017-07-14T18:27:55.216Z,16.70
2017-07-14T18:30:23.448Z,16.60
2017-07-14T18:32:51.550Z,16.60
2017-07-14T18:35:19.916Z,16.50
2017-07-14T18:37:48.279Z,16.50
2017-07-14T18:40:16.370Z,16.70
2017-07-14T18:42:44.456Z,16.90
2017-07-14T18:45:12.542Z,16.70
2017-07-14T18:47:40.623Z,16.60
2017-07-14T18:50:08.697Z,16.40
2017-07-14T18:52:36.832Z,16.30
2017-07-14T18:55:04.973Z,16.30
2017-07-14T18:57:33.113Z,16.20
2017-07-14T19:00:01.214Z,16.20
2017-07-14T19:02:29.525Z,16.20
2017-07-14T19:04:57.876Z,16.40
2017-07-14T19:07:26.040Z,16.10
2017-07-14T19:09:54.134Z,16.10
2017-07-14T19:12:22.248Z,16.10
2017-07-14T19:14:50.519Z,16.00
2017-07-14T19:17:18.660Z,15.90
2017-07-14T19:19:46.741Z,15.80
2017-07-14T19:22:14.850Z,15.90
2017-07-14T19:24:43.100Z,15.90
2017-07-14T19:27:11.265Z,15.80
2017-07-14T19:29:39.443Z,15.70
2017-07-14T19:32:07.770Z,15.60
2017-07-14T19:34:36.027Z,15.60
2017-07-14T19:37:04.177Z,15.70
2017-07-14T19:39:32.511Z,15.60
2017-07-14T19:42:00.788Z,15.50
2017-07-14T19:44:29.005Z,15.50
2017-07-14T19:46:57.340Z,15.40
2017-07-14T19:49:25.511Z,15.40
2017-07-14T19:51:54.287Z,15.40
2017-07-14T19:54:22.429Z,15.50
2017-07-14T19:56:50.881Z,15.40
2017-07-14T19:59:19.090Z,15.30
2017-07-14T20:01:47.320Z,15.20
2017-07-14T20:04:15.507Z,15.10
2017-07-14T20:06:43.757Z,15.30
2017-07-14T20:09:12.192Z,15.10
2017-07-14T20:11:40.480Z,15.10
2017-07-14T20:14:08.584Z,15.30
2017-07-14T20:16:36.821Z,15.30
2017-07-14T20:19:04.909Z,15.40
2017-07-14T20:21:33.160Z,15.30
2017-07-14T20:24:01.248Z,15.40
2017-07-14T20:26:29.331Z,15.40
2017-07-14T20:28:57.407Z,15.50
2017-07-14T20:31:25.493Z,15.60
2017-07-14T20:33:53.574Z,15.60
2017-07-14T20:36:21.651Z,15.60
2017-07-14T20:38:49.741Z,15.80
2017-07-14T20:41:17.831Z,15.90
2017-07-14T20:43:45.992Z,15.70
2017-07-14T20:46:14.093Z,15.70
2017-07-14T20:48:42.158Z,15.60
2017-07-14T20:51:10.247Z,15.60
2017-07-14T20:53:38.334Z,15.50
2017-07-14T20:56:06.419Z,15.50
2017-07-14T20:58:34.491Z,15.50
2017-07-14T21:01:02.615Z,15.40
2017-07-14T21:03:30.702Z,15.50
2017-07-14T21:05:58.884Z,15.30
2017-07-14T21:08:26.965Z,15.30
2017-07-14T21:10:55.069Z,15.20
2017-07-14T21:13:23.240Z,15.40
2017-07-14T21:15:51.323Z,15.40
2017-07-14T21:18:19.408Z,15.40
2017-07-14T21:20:47.491Z,15.50
2017-07-14T21:23:15.570Z,15.40
2017-07-14T21:25:43.654Z,15.70
2017-07-14T21:28:11.793Z,15.80
2017-07-14T21:30:39.884Z,15.70
2017-07-14T21:33:07.968Z,15.50
2017-07-14T21:35:36.052Z,15.10
2017-07-14T21:38:04.149Z,15.00
2017-07-14T21:40:32.242Z,14.90
2017-07-14T21:43:00.325Z,14.90
2017-07-14T21:45:28.422Z,14.90
2017-07-14T21:47:56.513Z,14.80
2017-07-14T21:50:24.620Z,14.90
2017-07-14T21:52:52.705Z,14.80
2017-07-14T21:55:20.830Z,14.70
2017-07-14T21:57:48.925Z,14.80
2017-07-14T22:00:17.148Z,14.70
2017-07-14T22:02:45.296Z,14.80
2017-07-14T22:05:13.462Z,14.60
2017-07-14T22:07:41.540Z,14.70
2017-07-14T22:10:09.631Z,14.70
2017-07-14T22:12:37.717Z,14.70
2017-07-14T22:15:05.811Z,14.80
2017-07-14T22:17:33.936Z,14.10
2017-07-14T22:20:02.015Z,14.20
2017-07-14T22:22:30.095Z,14.50
2017-07-14T22:24:58.192Z,14.50
2017-07-14T22:27:26.292Z,14.60
2017-07-14T22:29:54.377Z,14.60
2017-07-14T22:32:22.464Z,14.60
2017-07-14T22:34:50.552Z,14.80
2017-07-14T22:37:18.653Z,14.70
2017-07-14T22:39:46.750Z,14.70
2017-07-14T22:42:14.832Z,14.80
2017-07-14T22:44:42.924Z,14.80
2017-07-14T22:47:11.026Z,14.70
2017-07-14T22:49:39.125Z,14.50
2017-07-14T22:52:07.204Z,14.60
2017-07-14T22:54:35.292Z,14.60
2017-07-14T22:57:03.383Z,14.70
2017-07-14T22:59:31.490Z,14.50
2017-07-14T23:01:59.716Z,14.30
2017-07-14T23:04:27.813Z,14.10
2017-07-14T23:06:55.896Z,14.30
2017-07-14T23:09:24.002Z,14.10
2017-07-14T23:11:52.097Z,14.10
2017-07-14T23:14:20.190Z,14.00
2017-07-14T23:16:48.267Z,14.20
2017-07-14T23:19:16.384Z,14.30
2017-07-14T23:21:44.477Z,14.30
2017-07-14T23:24:12.563Z,14.40
2017-07-14T23:26:40.660Z,13.80
2017-07-14T23:29:08.744Z,13.90
2017-07-14T23:31:36.836Z,13.90
2017-07-14T23:34:04.919Z,13.90
2017-07-14T23:36:33.012Z,13.70
2017-07-14T23:39:01.096Z,13.50
2017-07-14T23:41:29.184Z,13.50
2017-07-14T23:43:57.272Z,13.20
2017-07-14T23:46:25.373Z,13.20
2017-07-14T23:48:53.455Z,13.30
2017-07-14T23:51:21.536Z,13.40
2017-07-14T23:53:49.630Z,13.40
2017-07-14T23:56:17.716Z,13.30
2017-07-14T23:58:45.816Z,13.20
